ADDS METAR Data INFO
IDs: Format: Raw Decoded Include TAF

Data at: 0202 UTC 17 Oct 2017

KPHX 170151Z 23004KT 10SM FEW250 32/03 A2996 RMK AO2 SLP128 T03220033
KPHX 170051Z 24003KT 10SM FEW250 35/02 A2995 RMK AO2 SLP125 T03500022
KPHX 162351Z 24005KT 10SM FEW250 37/02 A2996 RMK AO2 SLP127 T03670022 10372 20322 56012
KPHX 162251Z VRB04KT 10SM FEW250 36/02 A2997 RMK AO2 SLP129 T03610022
KPHX 162151Z 05006KT 10SM FEW250 36/02 A2998 RMK AO2 SLP134 T03560017
KPHX 162051Z 08007KT 10SM BKN250 36/01 A3000 RMK AO2 SLP140 T03560011 58034
KPHX 161951Z VRB06KT 10SM BKN250 34/00 A3004 RMK AO2 SLP152 T03440000
KPHX 161851Z 07009G15KT 10SM BKN250 33/00 A3007 RMK AO2 SLP165 T03330000
KPHX 161751Z 12007KT 10SM BKN250 32/M01 A3010 RMK AO2 SLP175 T03221006 10328 20206 58003
KPHX 161651Z 07013KT 10SM SCT250 31/M01 A3012 RMK AO2 SLP181 T03111011
KPHX 161551Z 07011KT 10SM SCT250 28/M01 A3012 RMK AO2 SLP181 T02831006
KPHX 161451Z 10005KT 10SM FEW250 25/00 A3011 RMK AO2 SLP179 T02500000 53012
KPHX 161351Z 10004KT 10SM CLR 21/01 A3009 RMK AO2 SLP175 T02110011
KPHX 161251Z 00000KT 10SM CLR 22/01 A3008 RMK AO2 SLP170 T02170006
KPHX 161151Z 00000KT 10SM CLR 22/01 A3007 RMK AO2 SLP166 T02220006 10267 20222 53002
KPHX 161051Z 15003KT 10SM CLR 23/M01 A3006 RMK AO2 SLP163 T02331006
KPHX 160951Z 14003KT 10SM CLR 23/M01 A3006 RMK AO2 SLP162 T02281006
KPHX 160851Z 11004KT 10SM CLR 23/M01 A3007 RMK AO2 SLP163 T02331011 51006
KPHX 160751Z 11003KT 10SM CLR 23/01 A3006 RMK AO2 SLP163 T02280006
KPHX 160651Z 08003KT 10SM CLR 24/01 A3006 RMK AO2 SLP161 T02440011 403610183
KPHX 160551Z 00000KT 10SM CLR 27/M05 A3005 RMK AO2 SLP157 T02671050 10350 20256 51009
KPHX 160451Z 24004KT 10SM CLR 26/M03 A3004 RMK AO2 SLP156 T02611028
KPHX 160351Z 28004KT 10SM CLR 28/M04 A3003 RMK AO2 SLP153 T02831039
KPHX 160251Z 26003KT 10SM CLR 29/M03 A3002 RMK AO2 SLP151 T02891033 53008
KPHX 160151Z 26004KT 10SM FEW250 31/M06 A3001 RMK AO2 SLP146 T03061056
KPHX 160051Z 25007KT 10SM FEW250 33/M08 A3000 RMK AO2 SLP140 T03331078
KPHX 152351Z 26004KT 10SM FEW250 35/M09 A3000 RMK AO2 SLP140 T03501089 10361 20300 56013
KPHX 152251Z 14004KT 10SM FEW250 35/M09 A3000 RMK AO2 SLP143 T03501089
KPHX 152151Z 00000KT 10SM FEW250 35/M09 A3002 RMK AO2 SLP149 T03501089
KPHX 152051Z VRB03KT 10SM FEW250 34/M09 A3004 RMK AO2 SLP154 T03391094 58027
KPHX 151951Z 28006KT 10SM FEW250 32/M08 A3007 RMK AO2 SLP164 T03221083
KPHX 151851Z 33003KT 10SM FEW220 31/M08 A3010 RMK AO2 SLP176 T03111078
KPHX 151751Z 07008KT 020V090 10SM FEW180 31/M10 A3012 RMK AO2 SLP183 T03061100 10306 20183 50004
KPHX 151651Z 07013KT 10SM FEW180 29/M11 A3013 RMK AO2 SLP185 T02891111
KPHX 151551Z VRB03KT 10SM FEW180 26/M03 A3012 RMK AO2 SLP185 T02561028
KPHX 151451Z 00000KT 10SM FEW180 21/01 A3011 RMK AO2 SLP181 T02060006 53018